Time;durP1;ratioP1;P1;durP2;ratioP2;P2;SDS_P1;SDS_P2;PMS_P1;PMS_P2;Temp;Humidity;BMP_temperature;BMP_pressure;BME280_temperature;BME280_humidity;BME280_pressure;Samples;Min_cycle;Max_cycle;Signal;HPM_P1;HPM_P2
2021/04/15 00:06:13;;;;;;;6.77;3.60;;;;;;;3.57;100.00;100935.92;713579;1199;114187;-71
2021/04/15 00:21:17;;;;;;;9.47;3.63;;;;;;;3.61;100.00;100921.05;713942;1200;113745;-72
2021/04/15 00:36:20;;;;;;;10.10;5.15;;;;;;;3.58;100.00;100903.88;713767;1202;113604;-72
2021/04/15 00:51:33;;;;;;;9.37;3.90;;;;;;;3.49;100.00;100899.97;713564;1200;114342;-72
2021/04/15 01:06:36;;;;;;;5.38;3.35;;;;;;;3.50;100.00;100888.68;717532;1166;113989;-82
2021/04/15 01:21:59;;;;;;;7.35;3.98;;;;;;;3.53;100.00;100881.67;715122;1166;113678;-71
2021/04/15 01:37:07;;;;;;;7.78;3.48;;;;;;;3.44;100.00;100876.00;714249;1178;114307;-70
2021/04/15 01:52:11;;;;;;;;;;;;;;;3.48;100.00;100854.20;714051;1207;112905;-70
2021/04/15 02:07:17;;;;;;;10.73;5.40;;;;;;;3.39;100.00;100844.28;714203;1177;99772;-73
2021/04/15 02:22:40;;;;;;;7.73;3.53;;;;;;;3.32;100.00;100837.70;714154;1200;114247;-70
2021/04/15 02:37:46;;;;;;;4.90;2.50;;;;;;;3.45;100.00;100832.76;714150;1200;113475;-72
2021/04/15 02:52:55;;;;;;;5.20;2.43;;;;;;;3.38;100.00;100818.39;713823;1201;114306;-72
2021/04/15 03:08:00;;;;;;;9.10;6.35;;;;;;;3.55;100.00;100809.77;713871;1177;113480;-71
2021/04/15 03:23:15;;;;;;;7.50;3.03;;;;;;;3.58;100.00;100807.05;713747;1200;113505;-71
2021/04/15 03:38:25;;;;;;;5.77;2.90;;;;;;;3.53;100.00;100804.67;713789;1177;113682;-71
2021/04/15 03:53:37;;;;;;;6.83;2.70;;;;;;;3.57;100.00;100805.36;713757;1203;113804;-72
2021/04/15 04:08:48;;;;;;;7.65;3.78;;;;;;;3.54;100.00;100803.76;714023;1176;113691;-70
2021/04/15 04:24:23;;;;;;;3.23;1.60;;;;;;;3.56;100.00;100793.30;713804;1204;113479;-73
2021/04/15 04:39:28;;;;;;;5.15;3.10;;;;;;;3.65;100.00;100798.02;714211;1190;113538;-70
2021/04/15 04:54:29;;;;;;;10.27;5.40;;;;;;;3.71;100.00;100795.13;713628;1177;113643;-73
2021/04/15 05:09:33;;;;;;;18.13;8.37;;;;;;;3.71;100.00;100792.53;713743;1204;113790;-72
2021/04/15 05:24:49;;;;;;;35.85;18.05;;;;;;;3.82;100.00;100789.38;714028;1201;113754;-72
2021/04/15 05:39:52;;;;;;;33.55;16.68;;;;;;;3.80;100.00;100797.25;713927;1200;114035;-71
2021/04/15 05:54:59;;;;;;;16.20;7.60;;;;;;;3.85;100.00;100802.19;717598;1199;114623;-72
2021/04/15 06:10:01;;;;;;;50.40;21.47;;;;;;;3.94;100.00;100804.30;715284;1200;113662;-72
2021/04/15 06:25:16;;;;;;;10.65;5.95;;;;;;;3.83;100.00;100786.70;714923;1200;114238;-73
2021/04/15 06:40:51;;;;;;;13.10;5.57;;;;;;;3.78;100.00;100783.50;714433;1200;113992;-71
2021/04/15 06:56:28;;;;;;;25.33;9.13;;;;;;;3.94;100.00;100782.70;714304;1200;113747;-71
2021/04/15 07:12:08;;;;;;;14.45;6.55;;;;;;;3.95;100.00;100790.41;714537;1200;113675;-70
2021/04/15 07:27:30;;;;;;;10.80;5.40;;;;;;;4.07;100.00;100788.92;714506;1178;113811;-70
2021/04/15 07:43:03;;;;;;;9.10;5.45;;;;;;;3.95;100.00;100799.97;714681;1177;113840;-70
2021/04/15 07:58:22;;;;;;;10.60;6.48;;;;;;;4.13;100.00;100801.59;714656;1203;113529;-70
2021/04/15 08:13:51;;;;;;;38.43;18.57;;;;;;;4.38;100.00;100807.23;714919;1200;113648;-70
2021/04/15 08:29:38;;;;;;;20.87;9.07;;;;;;;4.29;100.00;100817.20;714763;1204;113668;-71
2021/04/15 08:45:01;;;;;;;16.40;8.35;;;;;;;4.40;100.00;100827.02;714339;1203;113491;-70
2021/04/15 09:00:23;;;;;;;22.05;10.23;;;;;;;4.44;100.00;100818.13;715494;1200;23251;-69
2021/04/15 09:15:31;;;;;;;21.30;8.30;;;;;;;4.24;100.00;100810.59;714646;1202;116063;-71
2021/04/15 09:30:55;;;;;;;15.38;7.90;;;;;;;4.26;100.00;100808.73;715033;1200;113824;-71
2021/04/15 09:46:02;;;;;;;19.50;10.75;;;;;;;4.32;100.00;100808.41;714633;1200;113668;-70
2021/04/15 10:01:13;;;;;;;78.83;31.73;;;;;;;4.35;100.00;100797.84;714497;1176;114221;-70
2021/04/15 10:16:23;;;;;;;23.63;12.50;;;;;;;4.47;100.00;100789.41;715051;1204;114523;-72
2021/04/15 10:31:37;;;;;;;61.53;34.53;;;;;;;4.41;100.00;100804.45;714808;1177;114594;-73
2021/04/15 10:46:47;;;;;;;308.20;139.70;;;;;;;4.40;100.00;100803.63;714564;1200;113927;-69
2021/04/15 11:01:48;;;;;;;220.90;69.30;;;;;;;4.40;100.00;100810.60;714358;1204;115141;-71
2021/04/15 11:16:53;;;;;;;116.70;48.15;;;;;;;4.33;100.00;100810.92;714553;1202;116106;-72
2021/04/15 11:31:57;;;;;;;37.08;17.55;;;;;;;4.38;100.00;100817.63;720626;1200;114130;-72
2021/04/15 11:47:34;;;;;;;26.10;12.75;;;;;;;4.46;100.00;100815.44;715089;1203;114700;-71
2021/04/15 12:02:38;;;;;;;21.50;9.75;;;;;;;4.49;100.00;100816.13;715537;1200;113884;-72
2021/04/15 12:17:51;;;;;;;23.73;10.40;;;;;;;4.49;100.00;100815.30;714563;1205;113795;-72
2021/04/15 12:33:03;;;;;;;18.48;9.25;;;;;;;4.55;100.00;100811.52;715387;1200;113847;-72
2021/04/15 12:48:07;;;;;;;22.18;10.28;;;;;;;4.71;100.00;100808.91;714925;1200;113713;-73
2021/04/15 13:03:31;;;;;;;48.17;20.83;;;;;;;4.78;100.00;100799.88;715055;1200;115549;-71
2021/04/15 13:18:42;;;;;;;28.73;13.60;;;;;;;4.88;100.00;100800.19;714467;1193;113985;-71
2021/04/15 13:34:00;;;;;;;37.67;16.50;;;;;;;5.02;100.00;100797.65;714527;1177;114042;-71
2021/04/15 13:49:20;;;;;;;29.17;11.47;;;;;;;5.06;100.00;100790.52;715600;1206;115394;-71
2021/04/15 14:04:45;;;;;;;18.25;8.68;;;;;;;5.03;100.00;100791.53;714673;1200;113908;-69
2021/04/15 14:19:48;;;;;;;30.38;14.60;;;;;;;5.00;100.00;100795.14;714612;1202;113821;-71
2021/04/15 14:34:56;;;;;;;36.43;16.38;;;;;;;5.01;100.00;100795.97;714666;1200;113853;-70
2021/04/15 14:50:10;;;;;;;29.40;16.40;;;;;;;5.02;100.00;100796.82;714627;1200;114448;-70
2021/04/15 15:05:31;;;;;;;27.95;16.68;;;;;;;5.00;100.00;100796.88;714411;1202;115562;-69
2021/04/15 15:20:40;;;;;;;27.90;13.40;;;;;;;5.02;100.00;100797.65;715044;1200;115123;-71
2021/04/15 15:35:43;;;;;;;21.77;13.05;;;;;;;5.06;100.00;100775.73;714744;1200;115188;-70
2021/04/15 15:51:05;;;;;;;25.23;12.18;;;;;;;5.24;100.00;100765.20;714433;1202;114012;-72
2021/04/15 16:06:17;;;;;;;39.87;19.50;;;;;;;5.38;100.00;100762.63;716668;1200;114238;-70
2021/04/15 16:21:35;;;;;;;33.27;14.63;;;;;;;5.33;100.00;100765.52;714781;1200;115653;-69
2021/04/15 16:36:37;;;;;;;43.50;19.50;;;;;;;5.29;100.00;100774.43;714652;1200;114678;-69
2021/04/15 16:51:39;;;;;;;47.08;19.03;;;;;;;5.19;100.00;100769.82;714654;1199;115468;-68
2021/04/15 17:06:42;;;;;;;46.85;19.40;;;;;;;5.20;100.00;100768.91;714863;1203;114209;-70
2021/04/15 17:21:44;;;;;;;50.33;19.33;;;;;;;5.15;100.00;100776.98;714499;1203;113844;-70
2021/04/15 17:36:48;;;;;;;46.88;19.20;;;;;;;5.14;100.00;100790.91;714591;1200;115533;-70
2021/04/15 17:51:51;;;;;;;39.97;16.47;;;;;;;5.10;100.00;100785.04;714716;1203;114434;-70
2021/04/15 18:06:54;;;;;;;42.98;19.85;;;;;;;5.12;100.00;100785.80;715119;1200;113799;-69
2021/04/15 18:21:56;;;;;;;40.40;20.25;;;;;;;5.03;100.00;100807.13;715334;1200;115580;-70
2021/04/15 18:36:57;;;;;;;67.18;27.05;;;;;;;4.94;100.00;100820.66;715388;1204;113801;-70
2021/04/15 18:52:07;;;;;;;55.68;23.75;;;;;;;4.99;100.00;100819.46;716001;1205;113877;-68
2021/04/15 19:07:09;;;;;;;34.37;16.83;;;;;;;5.03;100.00;100824.48;715351;1200;114063;-70
2021/04/15 19:22:11;;;;;;;31.83;15.13;;;;;;;5.07;100.00;100836.38;714611;1200;114459;-70
2021/04/15 19:37:13;;;;;;;31.63;17.93;;;;;;;5.08;100.00;100845.87;715726;1200;113815;-69
2021/04/15 19:52:18;;;;;;;27.25;13.38;;;;;;;5.04;100.00;100833.97;714655;1200;114154;-71
2021/04/15 20:07:20;;;;;;;35.97;16.00;;;;;;;4.96;100.00;100826.59;714508;1200;113867;-70
2021/04/15 20:22:22;;;;;;;31.15;14.43;;;;;;;4.92;100.00;100838.09;714688;1200;113950;-70
2021/04/15 20:37:25;;;;;;;18.48;8.58;;;;;;;4.90;100.00;100839.95;715456;1200;113982;-69
2021/04/15 20:52:27;;;;;;;18.00;10.85;;;;;;;4.86;100.00;100838.41;715147;1200;113714;-70
2021/04/15 21:07:29;;;;;;;19.55;10.10;;;;;;;4.79;100.00;100838.78;715024;1202;113982;-69
2021/04/15 21:22:30;;;;;;;20.15;9.13;;;;;;;4.87;100.00;100840.09;715002;1187;114059;-71
2021/04/15 21:37:32;;;;;;;13.47;6.97;;;;;;;4.91;100.00;100826.00;715014;1199;113789;-71
2021/04/15 21:52:36;;;;;;;34.60;21.83;;;;;;;4.95;100.00;100817.14;714831;1205;115231;-70
2021/04/15 22:07:37;;;;;;;18.55;8.93;;;;;;;5.00;100.00;100804.69;716229;1200;113853;-70
2021/04/15 22:22:39;;;;;;;14.55;8.00;;;;;;;5.14;100.00;100796.94;716367;1188;114496;-70
2021/04/15 22:37:40;;;;;;;31.05;15.50;;;;;;;5.16;100.00;100789.90;714710;1200;113659;-70
2021/04/15 22:52:42;;;;;;;19.10;8.50;;;;;;;5.15;100.00;100777.81;714426;1200;113933;-69
2021/04/15 23:07:44;;;;;;;19.60;8.83;;;;;;;5.14;100.00;100768.33;714376;1200;114453;-71
2021/04/15 23:22:45;;;;;;;12.68;6.45;;;;;;;5.03;100.00;100755.13;714428;1200;115796;-70
2021/04/15 23:37:48;;;;;;;15.15;5.50;;;;;;;4.94;100.00;100745.25;714410;1204;114706;-71
2021/04/15 23:52:49;;;;;;;18.33;10.37;;;;;;;4.87;100.00;100723.11;714487;1200;115606;-69
